Time;durP1;ratioP1;P1;durP2;ratioP2;P2;SDS_P1;SDS_P2;PMS_P1;PMS_P2;Temp;Humidity;BMP_temperature;BMP_pressure;BME280_temperature;BME280_humidity;BME280_pressure;Samples;Min_cycle;Max_cycle;Signal;HPM_P1;HPM_P2
2021/10/27 00:01:38;;;;;;;9.98;6.85;;;;;;;7.60;71.62;97307.50;1669468;82;21155;-81
2021/10/27 00:04:04;;;;;;;8.73;6.35;;;;;;;7.57;71.78;97306.48;1727586;82;22186;-81
2021/10/27 00:06:29;;;;;;;9.30;6.85;;;;;;;7.58;71.97;97312.00;1720174;82;21036;-81
2021/10/27 00:08:55;;;;;;;8.20;6.22;;;;;;;7.59;71.98;97312.33;1704209;83;21427;-81
2021/10/27 00:11:21;;;;;;;8.63;6.05;;;;;;;7.60;71.99;97313.96;1739559;80;21401;-80
2021/10/27 00:13:48;;;;;;;8.63;6.47;;;;;;;7.58;72.23;97317.98;1707759;82;21089;-81
2021/10/27 00:16:14;;;;;;;8.43;6.53;;;;;;;7.57;72.38;97320.23;1700777;82;21093;-81
2021/10/27 00:18:40;;;;;;;8.40;6.40;;;;;;;7.55;72.41;97318.75;1674297;83;21107;-81
2021/10/27 00:21:05;;;;;;;8.75;6.42;;;;;;;7.52;72.46;97315.97;1713748;82;21212;-81
2021/10/27 00:23:31;;;;;;;9.63;6.83;;;;;;;7.49;72.48;97320.13;1699956;83;21080;-81
2021/10/27 00:25:57;;;;;;;8.15;5.67;;;;;;;7.49;72.86;97333.06;1712937;80;21118;-81
2021/10/27 00:28:23;;;;;;;7.62;6.05;;;;;;;7.48;72.84;97329.66;1683409;81;21091;-81
2021/10/27 00:30:49;;;;;;;8.33;6.25;;;;;;;7.47;72.85;97329.30;1672524;83;21138;-81
2021/10/27 00:33:16;;;;;;;9.03;6.47;;;;;;;7.47;72.93;97327.19;1673468;81;21477;-81
2021/10/27 00:35:43;;;;;;;9.35;6.85;;;;;;;7.44;72.99;97322.30;1721362;81;21486;-81
2021/10/27 00:38:08;;;;;;;9.00;5.87;;;;;;;7.41;73.07;97324.69;1695692;82;21101;-81
2021/10/27 00:40:34;;;;;;;10.13;6.80;;;;;;;7.36;73.29;97326.89;1734678;80;21034;-81
2021/10/27 00:43:00;;;;;;;9.28;7.35;;;;;;;7.32;73.38;97325.98;1715952;81;21537;-81
2021/10/27 00:45:26;;;;;;;7.90;6.50;;;;;;;7.30;73.55;97319.66;1753840;79;21056;-81
2021/10/27 00:47:51;;;;;;;9.28;6.97;;;;;;;7.34;73.41;97328.80;1711623;81;22122;-81
2021/10/27 00:50:17;;;;;;;9.18;6.30;;;;;;;7.37;73.43;97324.64;1681380;83;22708;-81
2021/10/27 00:52:43;;;;;;;8.80;7.40;;;;;;;7.38;73.37;97318.51;1714618;83;21058;-81
2021/10/27 00:55:09;;;;;;;8.43;6.53;;;;;;;7.38;73.33;97315.92;1730828;81;21073;-81
2021/10/27 00:57:36;;;;;;;7.50;5.95;;;;;;;7.37;73.31;97317.36;1710543;82;21229;-81
2021/10/27 01:00:04;;;;;;;10.93;7.72;;;;;;;7.35;73.23;97321.86;1686418;84;21095;-81
2021/10/27 01:02:30;;;;;;;10.10;7.05;;;;;;;7.33;73.26;97323.77;1724826;81;21552;-81
2021/10/27 01:04:55;;;;;;;9.40;7.90;;;;;;;7.30;73.21;97325.31;1723214;81;21144;-81
2021/10/27 01:07:21;;;;;;;10.68;7.05;;;;;;;7.28;73.20;97313.81;1721092;82;21057;-81
2021/10/27 01:09:47;;;;;;;11.03;8.03;;;;;;;7.30;73.27;97325.31;1727116;80;21469;-81
2021/10/27 01:12:13;;;;;;;13.20;7.90;;;;;;;7.30;73.24;97326.61;1688677;82;21114;-81
2021/10/27 01:14:45;;;;;;;11.00;7.67;;;;;;;7.30;73.30;97324.83;1716709;80;21518;-81
2021/10/27 01:17:16;;;;;;;13.15;8.70;;;;;;;7.27;73.25;97320.42;1717969;81;21089;-81
2021/10/27 01:19:55;;;;;;;10.00;7.35;;;;;;;7.24;73.36;97325.39;1727856;82;21644;-80
2021/10/27 01:22:34;;;;;;;7.47;6.67;;;;;;;7.21;73.58;97326.49;1710256;81;21098;-81
2021/10/27 01:25:00;;;;;;;11.03;7.70;;;;;;;7.17;73.57;97322.55;1743149;80;21430;-80
2021/10/27 01:27:26;;;;;;;11.20;7.30;;;;;;;7.14;73.74;97326.68;1711962;82;21204;-81
2021/10/27 01:29:52;;;;;;;10.58;7.62;;;;;;;7.14;73.79;97322.80;1717364;80;21423;-81
2021/10/27 01:32:37;;;;;;;10.50;7.37;;;;;;;7.15;73.80;97321.03;1730349;80;21141;-80
2021/10/27 01:35:00;;;;;;;9.28;7.35;;;;;;;7.16;73.93;97319.63;1694935;82;21017;-81
2021/10/27 01:37:26;;;;;;;31.57;16.50;;;;;;;7.16;74.14;97321.41;1744461;80;21492;-81
2021/10/27 01:39:53;;;;;;;9.70;7.05;;;;;;;7.14;74.12;97318.11;1711213;82;21052;-81
2021/10/27 01:42:20;;;;;;;10.13;7.97;;;;;;;7.12;74.15;97319.55;1723780;80;21150;-80
2021/10/27 01:44:46;;;;;;;9.43;6.97;;;;;;;7.09;74.15;97319.83;1735293;81;21076;-81
2021/10/27 01:47:12;;;;;;;10.03;6.90;;;;;;;7.07;74.16;97331.26;1718150;81;21078;-81
2021/10/27 01:49:37;;;;;;;8.15;6.30;;;;;;;7.09;74.33;97336.62;1720656;81;21060;-80
2021/10/27 01:52:04;;;;;;;9.73;7.47;;;;;;;7.10;74.53;97337.44;1719059;81;21079;-80
2021/10/27 01:54:30;;;;;;;9.40;6.55;;;;;;;7.11;74.44;97333.42;1734825;80;21452;-81
2021/10/27 01:56:56;;;;;;;9.65;6.95;;;;;;;7.12;74.66;97344.58;1723310;80;21145;-81
2021/10/27 01:59:22;;;;;;;9.55;6.30;;;;;;;7.15;74.74;97346.41;1734728;80;21137;-81
2021/10/27 02:01:51;;;;;;;9.83;7.45;;;;;;;7.17;74.91;97331.60;1736203;80;21130;-81
2021/10/27 02:04:20;;;;;;;9.35;6.72;;;;;;;7.18;74.93;97342.76;1700935;81;21032;-81
2021/10/27 02:06:47;;;;;;;8.45;6.55;;;;;;;7.20;74.89;97343.44;1720911;81;22388;-81
2021/10/27 02:09:12;;;;;;;6.97;6.00;;;;;;;7.25;74.92;97344.30;1709466;82;21092;-81
2021/10/27 02:11:38;;;;;;;10.00;6.15;;;;;;;7.31;74.95;97345.85;1757499;79;21586;-80
2021/10/27 02:14:04;;;;;;;9.35;5.95;;;;;;;7.37;75.08;97347.09;1750727;79;21101;-81
2021/10/27 02:16:30;;;;;;;6.87;5.40;;;;;;;7.40;75.22;97354.09;1718788;80;21089;-81
2021/10/27 02:18:56;;;;;;;7.67;5.80;;;;;;;7.44;75.38;97343.80;1744864;81;21162;-81
2021/10/27 02:21:21;;;;;;;8.45;5.60;;;;;;;7.48;75.48;97349.50;1719891;81;21172;-81
2021/10/27 02:23:51;;;;;;;10.30;6.53;;;;;;;7.50;75.68;97346.33;1721536;81;21031;-81
2021/10/27 02:26:18;;;;;;;8.03;5.80;;;;;;;7.56;75.46;97341.88;1731300;81;21076;-81
2021/10/27 02:28:46;;;;;;;9.03;5.87;;;;;;;7.62;75.48;97346.97;1719810;81;21468;-81
2021/10/27 02:31:12;;;;;;;7.12;5.67;;;;;;;7.68;75.28;97347.24;1723247;80;21037;-81
2021/10/27 02:33:37;;;;;;;9.10;6.08;;;;;;;7.72;75.23;97345.19;1693268;81;21069;-81
2021/10/27 02:36:04;;;;;;;6.60;5.45;;;;;;;7.72;75.34;97349.88;1765941;80;21067;-81
2021/10/27 02:38:30;;;;;;;6.70;5.03;;;;;;;7.72;75.24;97355.05;1742897;80;21080;-81
2021/10/27 02:40:56;;;;;;;8.58;5.55;;;;;;;7.71;75.21;97352.12;1751634;80;21132;-81
2021/10/27 02:43:22;;;;;;;8.00;5.33;;;;;;;7.70;75.26;97347.91;1704837;83;21070;-81
2021/10/27 02:45:48;;;;;;;8.50;5.60;;;;;;;7.71;75.10;97353.91;1732384;80;21225;-81
2021/10/27 02:48:15;;;;;;;6.25;5.55;;;;;;;7.72;74.91;97351.66;1716419;81;21116;-81
2021/10/27 02:50:42;;;;;;;7.85;6.08;;;;;;;7.75;74.83;97357.35;1665403;83;22231;-81
2021/10/27 02:53:07;;;;;;;8.48;5.80;;;;;;;7.74;74.87;97352.32;1732765;81;21100;-80
2021/10/27 02:55:33;;;;;;;7.35;5.40;;;;;;;7.73;74.96;97359.75;1752214;80;21087;-81
2021/10/27 02:58:01;;;;;;;7.35;6.17;;;;;;;7.70;75.00;97355.67;1716929;80;21493;-81
2021/10/27 03:00:27;;;;;;;9.03;6.08;;;;;;;7.68;75.02;97364.53;1718989;82;21074;-81
2021/10/27 03:02:54;;;;;;;9.15;5.87;;;;;;;7.65;75.04;97361.75;1733111;81;21238;-81
2021/10/27 03:05:21;;;;;;;7.80;5.70;;;;;;;7.63;75.03;97356.35;1700325;81;21509;-81
2021/10/27 03:07:47;;;;;;;7.83;5.47;;;;;;;7.63;75.00;97352.48;1697007;82;21117;-81
2021/10/27 03:10:13;;;;;;;6.47;5.55;;;;;;;7.61;75.00;97353.91;1736295;81;21079;-81
2021/10/27 03:12:39;;;;;;;9.13;6.20;;;;;;;7.58;75.04;97356.78;1721497;81;21066;-81
2021/10/27 03:15:05;;;;;;;8.00;5.25;;;;;;;7.56;75.19;97362.58;1707872;80;21147;-81
2021/10/27 03:17:31;;;;;;;9.30;5.53;;;;;;;7.51;75.28;97364.30;1714841;81;21061;-81
2021/10/27 03:19:58;;;;;;;6.83;5.37;;;;;;;7.47;75.45;97358.22;1765950;79;21047;-81
2021/10/27 03:22:23;;;;;;;8.68;5.87;;;;;;;7.43;75.70;97356.87;1724452;81;21481;-81
2021/10/27 03:24:49;;;;;;;8.43;5.50;;;;;;;7.42;75.69;97361.23;1754365;80;21034;-81
2021/10/27 03:27:15;;;;;;;9.38;5.22;;;;;;;7.43;75.79;97363.34;1758147;79;21063;-81
2021/10/27 03:32:07;;;;;;;6.62;5.83;;;;;;;7.51;76.07;97369.94;1741473;81;21116;-81
2021/10/27 03:34:33;;;;;;;5.70;4.72;;;;;;;7.53;76.21;97368.03;1740676;79;21035;-81
2021/10/27 03:36:58;;;;;;;8.30;6.30;;;;;;;7.57;76.42;97367.27;1749476;79;21090;-81
2021/10/27 03:39:24;;;;;;;7.05;5.42;;;;;;;7.61;76.69;97366.03;1692658;83;21140;-81
2021/10/27 03:41:50;;;;;;;9.15;6.95;;;;;;;7.62;76.73;97367.18;1746318;81;21161;-81
2021/10/27 03:44:16;;;;;;;6.12;5.12;;;;;;;7.65;76.81;97375.16;1750324;80;21079;-81
2021/10/27 03:46:42;;;;;;;11.65;5.83;;;;;;;7.70;76.79;97375.55;1730031;80;21094;-81
2021/10/27 03:49:08;;;;;;;9.98;5.40;;;;;;;7.73;76.76;97377.86;1717885;80;21492;-81
2021/10/27 03:51:33;;;;;;;9.73;5.75;;;;;;;7.78;76.75;97380.83;1677376;84;21499;-81
2021/10/27 03:53:59;;;;;;;7.05;5.28;;;;;;;7.82;76.81;97381.73;1715694;82;21061;-81
2021/10/27 03:56:25;;;;;;;8.48;5.00;;;;;;;7.87;76.74;97377.90;1661311;84;21582;-81
2021/10/27 03:58:51;;;;;;;5.17;4.60;;;;;;;7.89;76.94;97373.39;1674691;82;21795;-81
2021/10/27 04:01:17;;;;;;;6.30;5.33;;;;;;;7.91;77.02;97374.06;1694933;82;21120;-80
2021/10/27 04:03:43;;;;;;;7.47;5.08;;;;;;;7.90;77.02;97374.55;1717725;81;21148;-81
2021/10/27 04:06:08;;;;;;;7.10;5.25;;;;;;;7.92;77.00;97373.11;1716265;81;21155;-81
2021/10/27 04:08:35;;;;;;;7.33;4.75;;;;;;;7.95;76.83;97375.41;1698382;83;21143;-81
2021/10/27 04:11:00;;;;;;;6.92;5.62;;;;;;;7.96;76.73;97367.50;1699219;83;21177;-81
2021/10/27 04:13:26;;;;;;;6.90;5.03;;;;;;;7.99;76.65;97378.08;1664698;85;21171;-81
2021/10/27 04:15:52;;;;;;;7.37;5.03;;;;;;;7.99;76.63;97372.90;1714628;83;21160;-81
2021/10/27 04:18:18;;;;;;;6.80;5.08;;;;;;;7.99;76.66;97372.90;1717365;81;21064;-81
2021/10/27 04:20:44;;;;;;;8.58;5.12;;;;;;;7.96;76.71;97375.27;1692179;82;21163;-81
2021/10/27 04:23:10;;;;;;;7.45;5.70;;;;;;;7.95;76.72;97380.58;1726544;81;21042;-81
2021/10/27 04:25:36;;;;;;;6.87;5.05;;;;;;;7.94;76.83;97375.89;1709302;81;21041;-81
2021/10/27 04:28:03;;;;;;;7.37;4.72;;;;;;;7.96;76.85;97377.04;1690004;82;21119;-81
2021/10/27 04:30:29;;;;;;;6.62;4.70;;;;;;;7.98;76.78;97379.03;1744705;81;21232;-81
2021/10/27 04:32:55;;;;;;;6.55;4.70;;;;;;;7.98;76.66;97382.44;1705914;81;21642;-81
2021/10/27 04:35:22;;;;;;;10.10;5.37;;;;;;;7.98;76.60;97382.92;1688786;82;23746;-81
2021/10/27 04:37:47;;;;;;;6.90;4.87;;;;;;;7.93;76.67;97379.44;1718497;82;21213;-81
2021/10/27 04:40:15;;;;;;;5.65;4.80;;;;;;;7.90;76.71;97380.20;1712083;82;21189;-81
2021/10/27 04:42:41;;;;;;;5.58;5.00;;;;;;;7.83;76.71;97374.78;1753765;80;21137;-80
2021/10/27 04:45:08;;;;;;;7.10;5.20;;;;;;;7.78;76.80;97376.95;1733263;80;21373;-82
2021/10/27 04:47:34;;;;;;;6.25;5.12;;;;;;;7.77;76.83;97380.50;1735448;81;21137;-81
2021/10/27 04:50:00;;;;;;;7.08;5.45;;;;;;;7.73;76.87;97372.20;1737936;80;21121;-81
2021/10/27 04:52:26;;;;;;;7.47;5.85;;;;;;;7.73;76.97;97381.27;1714833;81;21061;-81
2021/10/27 04:54:51;;;;;;;7.58;5.08;;;;;;;7.75;77.07;97384.52;1721968;80;21531;-80
2021/10/27 04:57:19;;;;;;;7.50;5.50;;;;;;;7.75;77.19;97393.58;1719063;82;21492;-81
2021/10/27 04:59:44;;;;;;;6.65;5.28;;;;;;;7.77;77.41;97392.95;1676230;83;21090;-80
2021/10/27 05:02:14;;;;;;;7.65;5.20;;;;;;;7.77;77.57;97398.12;1745976;80;21058;-81
2021/10/27 05:04:41;;;;;;;5.97;5.05;;;;;;;7.78;77.69;97402.34;1722994;80;21169;-81
2021/10/27 05:07:08;;;;;;;5.40;3.92;;;;;;;7.82;77.90;97401.14;1727779;80;21048;-81
2021/10/27 05:09:34;;;;;;;5.80;4.40;;;;;;;7.86;77.82;97409.91;1735923;80;21152;-81
2021/10/27 05:12:01;;;;;;;5.42;4.58;;;;;;;7.89;77.70;97409.14;1721321;81;21046;-81
2021/10/27 05:14:26;;;;;;;6.35;4.65;;;;;;;7.93;77.68;97411.78;1728442;81;21226;-81
2021/10/27 05:16:52;;;;;;;7.03;5.00;;;;;;;7.95;77.85;97419.41;1714722;79;21092;-81
2021/10/27 05:19:18;;;;;;;6.50;4.45;;;;;;;7.95;78.00;97421.52;1682484;83;22102;-81
2021/10/27 05:21:44;;;;;;;5.22;4.60;;;;;;;7.94;78.00;97420.36;1684188;83;21101;-81
2021/10/27 05:24:10;;;;;;;5.75;4.08;;;;;;;7.95;78.09;97420.70;1678259;83;21051;-81
2021/10/27 05:26:35;;;;;;;4.45;3.33;;;;;;;7.97;78.16;97418.34;1708266;81;21054;-81
2021/10/27 05:29:01;;;;;;;5.33;4.15;;;;;;;7.99;78.08;97419.48;1711594;81;21053;-81
2021/10/27 05:31:27;;;;;;;7.08;4.50;;;;;;;8.02;78.07;97421.31;1733224;82;21461;-81
2021/10/27 05:33:52;;;;;;;5.25;3.72;;;;;;;8.06;78.07;97429.61;1687831;83;21150;-80
2021/10/27 05:36:18;;;;;;;5.60;3.90;;;;;;;8.09;78.05;97424.14;1702853;83;21091;-81
2021/10/27 05:38:44;;;;;;;7.75;4.33;;;;;;;8.09;78.12;97425.44;1741417;80;21622;-81
2021/10/27 05:41:10;;;;;;;6.12;3.98;;;;;;;8.08;78.14;97426.39;1733121;80;21065;-81
2021/10/27 05:43:36;;;;;;;5.00;3.67;;;;;;;8.06;78.12;97426.53;1725285;81;21050;-81
2021/10/27 05:46:03;;;;;;;6.72;4.00;;;;;;;8.06;78.10;97437.37;1743435;81;21154;-81
2021/10/27 05:48:38;;;;;;;10.78;3.85;;;;;;;8.05;78.06;97439.63;1719071;80;21252;-81
2021/10/27 05:56:19;;;;;;;5.72;4.28;;;;;;;7.98;78.09;97437.27;1723630;81;21444;-80
2021/10/27 05:58:50;;;;;;;6.20;4.37;;;;;;;7.94;78.20;97441.06;1689883;83;21203;-81
2021/10/27 06:01:16;;;;;;;6.47;3.90;;;;;;;7.90;78.23;97439.23;1707333;81;21402;-81
2021/10/27 06:03:43;;;;;;;6.55;4.12;;;;;;;7.90;78.17;97448.30;1721951;81;21165;-81
2021/10/27 06:06:10;;;;;;;7.35;4.42;;;;;;;7.90;78.13;97446.19;1738606;80;21153;-81
2021/10/27 06:08:36;;;;;;;5.08;4.15;;;;;;;7.90;78.18;97441.83;1668895;83;21897;-81
2021/10/27 06:11:13;;;;;;;4.30;3.40;;;;;;;7.88;78.25;97448.10;1678092;82;21130;-80
2021/10/27 06:13:44;;;;;;;5.08;3.72;;;;;;;7.85;78.30;97453.56;1719832;79;21526;-80
2021/10/27 06:16:07;;;;;;;4.55;3.90;;;;;;;7.82;78.40;97452.06;1727163;81;21145;-81
2021/10/27 06:18:33;;;;;;;5.53;3.75;;;;;;;7.78;78.46;97456.68;1728068;83;21110;-81
2021/10/27 06:20:59;;;;;;;5.72;3.02;;;;;;;7.77;78.50;97454.23;1691362;83;21222;-81
2021/10/27 06:23:24;;;;;;;3.67;2.92;;;;;;;7.79;78.53;97460.90;1685981;83;21105;-81
2021/10/27 06:25:51;;;;;;;7.05;3.65;;;;;;;7.80;78.48;97461.23;1698593;83;21110;-81
2021/10/27 06:28:23;;;;;;;3.98;3.40;;;;;;;7.81;78.50;97457.72;1675111;84;21088;-81
2021/10/27 06:30:50;;;;;;;5.97;3.55;;;;;;;7.80;78.57;97459.12;1727079;81;21130;-81
2021/10/27 06:36:12;;;;;;;4.40;2.98;;;;;;;7.78;78.66;97456.68;1714329;81;21062;-81
2021/10/27 06:46:38;;;;;;;4.83;4.15;;;;;;;7.86;78.73;97459.07;1690227;82;21225;-81
2021/10/27 06:49:05;;;;;;;5.35;4.05;;;;;;;7.86;78.74;97469.42;1714798;82;21272;-82
2021/10/27 06:51:32;;;;;;;6.08;3.92;;;;;;;7.87;78.82;97468.47;1709752;82;21081;-81
2021/10/27 06:53:58;;;;;;;7.17;3.85;;;;;;;7.86;78.78;97469.42;1719212;81;21165;-82
2021/10/27 06:56:24;;;;;;;6.60;4.20;;;;;;;7.88;78.75;97472.20;1728525;81;21304;-81
2021/10/27 07:01:21;;;;;;;4.35;3.65;;;;;;;7.96;78.73;97477.49;1704620;81;21109;-81
2021/10/27 07:16:53;;;;;;;6.87;3.92;;;;;;;7.94;78.84;97469.53;1692504;81;21116;-81
2021/10/27 07:19:19;;;;;;;6.75;4.28;;;;;;;7.97;78.86;97475.72;1689365;83;21559;-81
2021/10/27 07:21:45;;;;;;;4.97;3.72;;;;;;;8.01;78.86;97470.63;1701160;81;21077;-81
2021/10/27 07:24:11;;;;;;;7.62;5.53;;;;;;;8.07;78.83;97471.36;1708681;81;21177;-81
2021/10/27 07:26:38;;;;;;;16.95;12.93;;;;;;;8.11;78.76;97463.16;1657939;84;21142;-81
2021/10/27 07:29:04;;;;;;;11.65;9.20;;;;;;;8.16;78.86;97474.41;1691647;83;21378;-81
2021/10/27 07:31:31;;;;;;;10.45;7.62;;;;;;;8.20;78.73;97480.94;1685052;83;21114;-81
2021/10/27 07:34:03;;;;;;;43.75;27.20;;;;;;;8.24;78.60;97472.41;1709093;83;21145;-81
2021/10/27 07:41:20;;;;;;;37.15;25.90;;;;;;;8.53;78.06;97475.76;1745072;78;21532;-80
2021/10/27 07:43:46;;;;;;;32.63;23.60;;;;;;;8.60;77.82;97479.88;1705460;81;21133;-81
2021/10/27 07:46:12;;;;;;;24.57;17.77;;;;;;;8.66;77.59;97474.15;1718709;81;21080;-81
2021/10/27 07:48:38;;;;;;;30.60;20.37;;;;;;;8.67;77.65;97471.89;1676718;82;21168;-81
2021/10/27 07:51:04;;;;;;;9.35;7.08;;;;;;;8.70;77.56;97474.19;1766005;80;21263;-81
2021/10/27 07:53:32;;;;;;;6.83;4.15;;;;;;;8.77;77.69;97478.31;1741923;81;21070;-81
2021/10/27 07:55:59;;;;;;;5.47;3.65;;;;;;;8.85;77.52;97475.35;1727907;80;21081;-81
2021/10/27 07:58:25;;;;;;;5.90;3.70;;;;;;;8.91;77.47;97478.65;1743882;79;21478;-81
2021/10/27 08:00:57;;;;;;;5.22;4.30;;;;;;;8.95;77.42;97471.42;1782590;78;21145;-81
2021/10/27 08:03:22;;;;;;;5.87;3.90;;;;;;;9.01;77.40;97465.17;1725078;81;21622;-81
2021/10/27 08:05:49;;;;;;;6.05;3.85;;;;;;;9.06;77.37;97465.20;1692308;84;21184;-81
2021/10/27 08:08:18;;;;;;;5.17;3.37;;;;;;;9.14;77.30;97465.31;1725182;80;21132;-81
2021/10/27 08:10:43;;;;;;;8.03;4.97;;;;;;;9.21;77.23;97459.38;1738257;79;22115;-81
2021/10/27 08:13:10;;;;;;;7.92;4.58;;;;;;;9.27;76.98;97461.41;1755085;79;21027;-81
2021/10/27 08:15:36;;;;;;;4.25;3.52;;;;;;;9.36;76.86;97460.98;1727216;81;21182;-81
2021/10/27 08:18:03;;;;;;;5.85;4.00;;;;;;;9.46;76.83;97466.11;1740271;81;21082;-81
2021/10/27 08:20:30;;;;;;;5.33;4.58;;;;;;;9.52;76.48;97461.62;1703510;81;21080;-81
2021/10/27 08:22:58;;;;;;;4.47;3.77;;;;;;;9.59;76.40;97467.83;1681912;83;21419;-81
2021/10/27 08:27:55;;;;;;;5.42;3.40;;;;;;;9.74;75.94;97475.91;1741539;80;21099;-81
2021/10/27 08:30:22;;;;;;;5.08;3.92;;;;;;;9.84;75.72;97477.95;1733962;81;21377;-81
2021/10/27 08:32:51;;;;;;;4.05;3.02;;;;;;;9.90;75.29;97471.66;1757851;80;21075;-81
2021/10/27 08:35:16;;;;;;;5.08;3.22;;;;;;;10.04;75.12;97473.39;1743241;80;21090;-81
2021/10/27 08:37:48;;;;;;;4.80;3.22;;;;;;;10.18;74.50;97475.44;1770147;80;21128;-81
2021/10/27 08:40:16;;;;;;;;;;;;;;;10.32;74.32;97480.59;1764225;80;21018;-81
2021/10/27 08:42:43;;;;;;;5.10;3.75;;;;;;;10.44;74.08;97481.98;1748878;80;20086;-81
2021/10/27 08:45:09;;;;;;;4.50;3.27;;;;;;;10.51;73.41;97479.08;1751430;81;21455;-81
2021/10/27 08:47:37;;;;;;;6.67;3.60;;;;;;;10.63;73.51;97487.43;1723115;81;21204;-81
2021/10/27 08:50:03;;;;;;;4.75;3.65;;;;;;;10.69;73.26;97481.60;1705406;82;21376;-81
2021/10/27 08:52:30;;;;;;;4.58;2.75;;;;;;;10.80;73.22;97491.73;1708781;81;21117;-81
2021/10/27 08:54:57;;;;;;;4.05;3.35;;;;;;;10.85;72.72;97484.27;1745892;80;21094;-81
2021/10/27 08:57:24;;;;;;;4.85;3.27;;;;;;;10.95;72.57;97490.17;1729616;81;21555;-81
2021/10/27 09:38:29;;;;;;;24.23;14.10;;;;;;;12.38;67.31;97479.45;1720187;81;21099;-81
2021/10/27 09:41:34;;;;;;;7.45;5.65;;;;;;;12.48;66.76;97480.55;1726102;80;21141;-81
2021/10/27 09:46:19;;;;;;;16.10;10.45;;;;;;;12.56;66.49;97475.33;1701334;83;21087;-81
2021/10/27 10:04:35;;;;;;;17.50;9.88;;;;;;;13.02;63.71;97479.41;1701692;82;21479;-82
2021/10/27 10:07:05;;;;;;;8.70;5.55;;;;;;;13.07;64.07;97477.91;1720266;80;21113;-81
2021/10/27 10:09:37;;;;;;;9.55;5.33;;;;;;;13.12;63.86;97477.38;1687861;83;21485;-81
2021/10/27 10:12:00;;;;;;;6.50;5.03;;;;;;;13.12;63.33;97486.52;1713878;82;21076;-81
2021/10/27 10:14:25;;;;;;;6.45;4.83;;;;;;;13.11;63.33;97474.45;1718294;80;21544;-82
2021/10/27 10:16:54;;;;;;;7.65;4.60;;;;;;;13.12;62.69;97475.59;1719813;81;21152;-82
2021/10/27 10:19:23;;;;;;;6.67;5.35;;;;;;;13.13;63.00;97478.52;1704903;81;21160;-82
2021/10/27 10:21:51;;;;;;;7.15;5.60;;;;;;;13.19;63.37;97478.37;1722478;81;21142;-82
2021/10/27 10:24:29;;;;;;;7.37;5.80;;;;;;;13.26;63.21;97478.49;1705400;82;21197;-82
2021/10/27 10:27:05;;;;;;;10.10;7.45;;;;;;;13.29;62.80;97469.82;1720636;81;21096;-82
2021/10/27 10:29:45;;;;;;;12.80;9.43;;;;;;;13.33;62.66;97474.20;1719593;81;21074;-82
2021/10/27 10:32:24;;;;;;;13.65;10.75;;;;;;;13.36;63.37;97477.30;1687660;81;21123;-82
2021/10/27 10:35:14;;;;;;;11.90;10.68;;;;;;;13.39;63.04;97478.25;1693493;81;21075;-82
2021/10/27 10:40:40;;;;;;;17.42;13.43;;;;;;;13.36;62.91;97474.69;1776797;79;21178;-81
2021/10/27 11:37:12;;;;;;;13.08;9.53;;;;;;;13.71;61.95;97440.66;1838408;77;21137;-81
2021/10/27 11:38:35;;;;;;;9.70;7.12;;;;;;;13.75;60.27;97441.11;1729177;81;21133;-82
2021/10/27 11:40:57;;;;;;;8.98;6.42;;;;;;;13.77;60.90;97436.52;1736524;80;21153;-82
2021/10/27 11:43:53;;;;;;;9.20;6.67;;;;;;;13.78;59.89;97432.92;1771250;79;21130;-82
2021/10/27 11:45:55;;;;;;;6.97;5.58;;;;;;;13.78;60.00;97429.81;1794949;78;21132;-82
2021/10/27 11:50:53;;;;;;;7.65;5.22;;;;;;;13.84;59.86;97430.13;1787833;78;21205;-82
2021/10/27 11:53:34;;;;;;;8.83;6.55;;;;;;;13.89;59.74;97426.47;1781720;78;21150;-82
2021/10/27 11:56:14;;;;;;;8.93;6.62;;;;;;;13.92;59.76;97430.03;1775029;78;21080;-82
2021/10/27 11:58:44;;;;;;;9.13;6.90;;;;;;;13.95;59.83;97430.48;1730084;80;21059;-82
2021/10/27 12:01:15;;;;;;;10.50;6.00;;;;;;;14.01;59.79;97427.67;1736419;80;21102;-82
2021/10/27 12:03:43;;;;;;;6.55;5.85;;;;;;;14.05;60.26;97426.33;1776048;78;21197;-82
2021/10/27 12:06:24;;;;;;;8.70;6.12;;;;;;;14.08;59.92;97419.44;1820433;77;21101;-82
2021/10/27 12:18:55;;;;;;;;;;;;;;;14.18;59.48;97412.16;1775082;78;21540;-82
2021/10/27 12:23:50;;;;;;;8.50;5.80;;;;;;;14.24;59.06;97426.30;1764026;79;21024;-82
2021/10/27 12:26:17;;;;;;;7.03;6.33;;;;;;;14.21;58.69;97424.86;1782553;80;21150;-82
2021/10/27 12:28:43;;;;;;;7.85;6.17;;;;;;;14.21;58.22;97417.02;1804442;79;21139;-82
2021/10/27 12:31:16;;;;;;;7.20;6.33;;;;;;;14.20;58.74;97416.70;1728593;80;21064;-82
2021/10/27 12:33:43;;;;;;;8.03;6.62;;;;;;;14.20;58.96;97417.20;1794443;78;21116;-82
2021/10/27 12:39:14;;;;;;;8.25;6.00;;;;;;;14.11;59.13;97416.45;1779838;79;21200;-82
2021/10/27 12:41:38;;;;;;;8.48;6.00;;;;;;;14.00;58.74;97414.30;1770426;79;21048;-82
2021/10/27 12:44:22;;;;;;;7.80;5.47;;;;;;;13.91;58.92;97414.05;1763002;79;21038;-82
2021/10/27 12:47:09;;;;;;;9.00;4.70;;;;;;;13.84;58.42;97413.95;1815703;77;21031;-82
2021/10/27 12:49:34;;;;;;;8.05;5.58;;;;;;;13.79;58.42;97413.65;1779555;78;21441;-82
2021/10/27 12:52:26;;;;;;;6.95;4.67;;;;;;;13.76;58.69;97411.39;1782751;79;21172;-82
2021/10/27 12:55:26;;;;;;;6.77;5.10;;;;;;;13.81;58.78;97409.86;1764480;78;23981;-82
2021/10/27 12:58:05;;;;;;;8.10;5.10;;;;;;;13.90;59.00;97416.34;1751363;78;21074;-82
2021/10/27 13:16:18;;;;;;;6.45;3.90;;;;;;;14.01;57.62;97416.73;1822082;76;21062;-82
2021/10/27 13:21:20;;;;;;;7.70;4.05;;;;;;;13.96;57.66;97411.20;1819555;77;21024;-82
2021/10/27 13:31:26;;;;;;;6.47;4.20;;;;;;;13.94;57.60;97416.30;1781843;78;21124;-82
2021/10/27 13:33:52;;;;;;;6.40;4.50;;;;;;;13.92;57.64;97419.58;1783177;77;21628;-82
2021/10/27 13:36:17;;;;;;;7.60;4.70;;;;;;;13.87;57.54;97420.13;1782746;78;21134;-82
2021/10/27 13:38:45;;;;;;;6.33;3.75;;;;;;;13.79;57.35;97413.16;1798216;78;21009;-82
2021/10/27 13:41:11;;;;;;;3.75;3.35;;;;;;;13.71;57.83;97421.07;1784801;77;21022;-82
2021/10/27 14:07:24;;;;;;;7.90;4.30;;;;;;;13.04;59.19;97421.34;1765311;79;21185;-82
2021/10/27 14:12:24;;;;;;;5.80;4.20;;;;;;;12.97;59.48;97430.33;1783772;79;21063;-82
2021/10/27 15:21:28;;;;;;;5.95;4.25;;;;;;;11.21;65.34;97422.45;1733621;80;21134;-82
2021/10/27 15:24:27;;;;;;;5.47;3.90;;;;;;;11.09;65.61;97423.74;1783859;78;21019;-82
2021/10/27 15:36:58;;;;;;;8.20;4.42;;;;;;;10.81;66.55;97417.48;1792096;79;21060;-82
2021/10/27 15:52:19;;;;;;;5.85;4.45;;;;;;;10.42;67.47;97416.36;1795271;79;21129;-82
2021/10/27 15:54:43;;;;;;;5.67;4.22;;;;;;;10.34;67.53;97408.52;1770070;79;21091;-82
2021/10/27 15:57:10;;;;;;;7.72;4.78;;;;;;;10.32;67.61;97413.05;1755702;79;21477;-82
2021/10/27 15:59:37;;;;;;;5.72;4.15;;;;;;;10.28;67.60;97411.26;1740575;79;21124;-82
2021/10/27 16:02:04;;;;;;;4.72;3.70;;;;;;;10.26;67.68;97411.08;1748806;79;21090;-82
2021/10/27 16:04:30;;;;;;;5.08;3.37;;;;;;;10.22;67.73;97407.95;1788367;77;21149;-82
2021/10/27 16:06:56;;;;;;;6.83;3.92;;;;;;;10.17;67.94;97411.48;1790622;78;21539;-82
2021/10/27 16:11:55;;;;;;;5.37;4.65;;;;;;;10.03;68.29;97417.23;1777997;78;21586;-82
2021/10/27 16:14:23;;;;;;;8.30;4.90;;;;;;;9.95;68.61;97423.20;1803633;78;21169;-81
2021/10/27 16:16:49;;;;;;;6.28;4.10;;;;;;;9.87;68.75;97430.44;1791620;77;21007;-82
2021/10/27 16:19:15;;;;;;;6.70;4.20;;;;;;;9.79;68.92;97433.47;1755895;80;21203;-82
2021/10/27 16:21:41;;;;;;;6.12;4.37;;;;;;;9.76;69.18;97433.75;1820164;77;21146;-82
2021/10/27 16:24:08;;;;;;;7.65;4.58;;;;;;;9.72;69.28;97429.34;1782887;77;21586;-82
2021/10/27 16:26:34;;;;;;;6.30;4.60;;;;;;;9.69;69.37;97436.62;1780370;79;21134;-82
2021/10/27 16:29:01;;;;;;;5.33;4.10;;;;;;;9.65;69.57;97436.59;1783710;77;21081;-82
2021/10/27 16:31:27;;;;;;;6.05;4.17;;;;;;;9.59;69.79;97432.80;1763154;79;21146;-82
2021/10/27 16:33:53;;;;;;;5.87;4.40;;;;;;;9.54;69.88;97430.66;1778705;79;21511;-82
2021/10/27 16:36:22;;;;;;;6.87;4.78;;;;;;;9.48;70.09;97433.05;1769722;79;21178;-82
2021/10/27 16:38:48;;;;;;;5.45;4.00;;;;;;;9.44;70.23;97434.32;1789969;79;21103;-82
2021/10/27 16:41:14;;;;;;;6.67;4.20;;;;;;;9.38;70.49;97425.81;1759959;80;21412;-81
2021/10/27 16:43:42;;;;;;;7.33;4.92;;;;;;;9.35;70.68;97430.83;1795035;77;21060;-82
2021/10/27 16:46:08;;;;;;;6.97;4.72;;;;;;;9.32;70.70;97428.53;1771253;78;21428;-82
2021/10/27 16:48:34;;;;;;;7.37;5.40;;;;;;;9.30;70.71;97435.65;1743405;80;21072;-81
2021/10/27 16:51:00;;;;;;;6.50;4.47;;;;;;;9.29;70.92;97441.32;1754089;78;21122;-82
2021/10/27 16:53:26;;;;;;;6.67;4.55;;;;;;;9.25;71.10;97437.84;1776791;78;21470;-81
2021/10/27 16:55:52;;;;;;;5.92;4.65;;;;;;;9.20;71.27;97439.59;1760763;80;21055;-81
2021/10/27 16:58:18;;;;;;;7.08;5.00;;;;;;;9.16;71.38;97440.05;1780897;78;21059;-81